Time;durP1;ratioP1;P1;durP2;ratioP2;P2;SDS_P1;SDS_P2;PMS_P1;PMS_P2;Temp;Humidity;BMP_temperature;BMP_pressure;BME280_temperature;BME280_humidity;BME280_pressure;Samples;Min_cycle;Max_cycle;Signal;HPM_P1;HPM_P2
2023/04/10 00:02:24;;;;;;;9.80;6.43;;;;;;;8.80;59.07;97116.41;5069395;28;20193;-75
2023/04/10 00:04:51;;;;;;;8.73;6.00;;;;;;;8.66;59.34;97133.31;5069451;28;20196;-82
2023/04/10 00:07:19;;;;;;;9.77;6.40;;;;;;;8.42;61.37;97129.06;5069752;28;20991;-87
2023/04/10 00:09:46;;;;;;;9.87;6.77;;;;;;;8.21;61.84;97109.97;5051134;28;20661;-84
2023/04/10 00:12:14;;;;;;;9.33;6.37;;;;;;;8.42;62.13;97118.72;5074287;28;20196;-85
2023/04/10 00:14:41;;;;;;;9.27;6.43;;;;;;;8.52;61.75;97122.66;5071691;28;20255;-86
2023/04/10 00:17:08;;;;;;;7.93;6.13;;;;;;;8.51;62.58;97105.50;5070654;28;20223;-86
2023/04/10 00:19:35;;;;;;;8.03;6.23;;;;;;;8.64;62.43;97114.47;5069555;28;20189;-84
2023/04/10 00:22:03;;;;;;;9.50;6.10;;;;;;;8.61;62.68;97104.25;5068903;28;20216;-85
2023/04/10 00:24:31;;;;;;;8.70;5.90;;;;;;;8.70;62.41;97103.91;5068963;28;20200;-86
2023/04/10 00:26:58;;;;;;;9.13;6.63;;;;;;;8.68;62.12;97100.53;5068675;28;20186;-86
2023/04/10 00:29:25;;;;;;;8.43;6.33;;;;;;;8.74;61.21;97098.56;5067417;28;20273;-84
2023/04/10 00:31:52;;;;;;;7.33;5.47;;;;;;;8.97;60.30;97083.06;5050561;28;20577;-84
2023/04/10 00:34:19;;;;;;;9.00;6.37;;;;;;;9.08;60.38;97077.47;5068955;28;20974;-87
2023/04/10 00:36:46;;;;;;;8.53;6.43;;;;;;;9.29;59.36;97081.78;5069197;28;20198;-84
2023/04/10 00:39:13;;;;;;;8.43;6.03;;;;;;;9.36;58.84;97070.28;5093835;28;20222;-82
2023/04/10 00:41:40;;;;;;;9.93;5.93;;;;;;;9.46;57.97;97079.34;5091256;28;20191;-79
2023/04/10 00:44:07;;;;;;;7.93;5.90;;;;;;;9.33;59.59;97069.59;5090100;28;20193;-85
2023/04/10 00:46:37;;;;;;;8.53;5.43;;;;;;;9.34;59.45;97071.25;5070297;28;20187;-85
2023/04/10 00:49:05;;;;;;;8.27;6.13;;;;;;;9.39;59.33;97069.34;5070074;28;20243;-85
2023/04/10 00:51:32;;;;;;;7.73;6.20;;;;;;;9.47;58.80;97070.72;5069748;28;20691;-86
2023/04/10 00:54:00;;;;;;;7.53;5.80;;;;;;;9.47;58.94;97069.84;5055213;28;20228;-84
2023/04/10 00:56:30;;;;;;;8.93;6.93;;;;;;;9.51;58.84;97074.84;5069928;28;20216;-85
2023/04/10 00:58:57;;;;;;;8.97;6.27;;;;;;;9.48;59.05;97074.16;5068917;28;20216;-87
2023/04/10 01:01:24;;;;;;;8.87;6.23;;;;;;;9.41;59.28;97078.72;5068539;28;20196;-86
2023/04/10 01:03:52;;;;;;;7.00;5.90;;;;;;;9.36;59.49;97074.63;5068950;28;20185;-86
2023/04/10 01:06:54;;;;;;;8.80;6.27;;;;;;;9.36;60.27;97074.63;5071155;28;20189;-86
2023/04/10 01:09:38;;;;;;;8.03;6.20;;;;;;;9.01;61.09;97052.78;5051705;28;20196;-78
2023/04/10 01:12:42;;;;;;;8.83;6.03;;;;;;;9.03;61.22;97066.47;5049963;28;20181;-84
2023/04/10 01:15:15;;;;;;;9.10;6.50;;;;;;;9.10;62.13;97070.50;5068559;28;20231;-83
2023/04/10 01:17:55;;;;;;;6.43;5.10;;;;;;;8.98;61.74;97068.41;5067946;28;20607;-85
2023/04/10 01:20:24;;;;;;;6.87;5.30;;;;;;;9.14;61.11;97066.91;5080427;28;20209;-85
2023/04/10 01:23:16;;;;;;;8.33;6.23;;;;;;;9.13;61.20;97065.19;5076541;28;20690;-84
2023/04/10 01:25:57;;;;;;;8.80;5.83;;;;;;;9.08;60.91;97072.31;5076066;28;20242;-85
2023/04/10 01:28:45;;;;;;;7.40;5.77;;;;;;;8.97;60.70;97064.13;5049854;28;20614;-82
2023/04/10 01:31:20;;;;;;;7.20;5.50;;;;;;;8.91;60.55;97062.63;5068775;28;20215;-86
2023/04/10 01:33:51;;;;;;;8.97;6.47;;;;;;;8.81;61.57;97055.28;5067308;28;20227;-85
2023/04/10 01:36:25;;;;;;;8.90;6.33;;;;;;;8.89;61.82;97068.75;5068507;28;20243;-85
2023/04/10 01:38:53;;;;;;;9.37;6.57;;;;;;;8.82;61.49;97070.72;5072696;28;20610;-85
2023/04/10 01:41:22;;;;;;;8.60;6.43;;;;;;;8.60;62.62;97071.59;5069878;28;20629;-83
2023/04/10 01:43:52;;;;;;;8.93;5.93;;;;;;;8.45;63.01;97056.69;5050138;28;20204;-76
2023/04/10 01:46:21;;;;;;;7.40;6.30;;;;;;;8.42;63.86;97067.97;5076680;28;20573;-84
2023/04/10 01:48:50;;;;;;;7.83;5.77;;;;;;;8.41;63.76;97070.63;5072642;28;20238;-80
2023/04/10 01:51:17;;;;;;;8.20;6.33;;;;;;;8.47;63.57;97068.63;5069460;28;20177;-83
2023/04/10 01:53:46;;;;;;;8.90;6.50;;;;;;;8.17;63.39;97051.66;5067645;28;20634;-76
2023/04/10 01:56:15;;;;;;;8.63;6.30;;;;;;;8.36;64.49;97062.19;5049169;28;20604;-77
2023/04/10 01:58:45;;;;;;;8.17;5.90;;;;;;;8.40;63.87;97068.91;5049194;28;20189;-79
2023/04/10 02:01:18;;;;;;;7.87;6.00;;;;;;;8.33;64.51;97067.44;5049407;28;20573;-78
2023/04/10 02:03:57;;;;;;;8.23;5.70;;;;;;;8.39;63.88;97073.22;5066962;28;20729;-78
2023/04/10 02:06:27;;;;;;;6.47;5.23;;;;;;;8.50;63.51;97062.50;5048767;28;20219;-77
2023/04/10 02:09:06;;;;;;;8.53;6.10;;;;;;;8.34;64.00;97064.84;5032563;28;20247;-81
2023/04/10 02:11:40;;;;;;;7.90;5.57;;;;;;;8.42;63.59;97064.53;5049686;28;20228;-82
2023/04/10 02:14:11;;;;;;;8.13;5.83;;;;;;;8.45;64.69;97067.03;5085040;28;20226;-82
2023/04/10 02:17:01;;;;;;;7.17;5.73;;;;;;;8.40;64.79;97058.59;5057573;28;20667;-80
2023/04/10 02:19:30;;;;;;;7.27;6.13;;;;;;;8.45;64.47;97062.69;5049444;28;20284;-85
2023/04/10 02:21:58;;;;;;;8.57;5.93;;;;;;;8.46;64.60;97064.38;5066871;28;20692;-85
2023/04/10 02:24:26;;;;;;;8.13;6.20;;;;;;;8.48;64.13;97056.56;5049392;28;20213;-86
2023/04/10 02:26:53;;;;;;;8.67;6.13;;;;;;;8.42;63.93;97046.47;5050236;28;20719;-84
2023/04/10 02:29:21;;;;;;;9.43;6.43;;;;;;;8.50;64.16;97057.34;5078067;28;20866;-76
2023/04/10 02:31:49;;;;;;;8.93;5.87;;;;;;;8.39;63.99;97029.38;5076461;28;20205;-79
2023/04/10 02:34:15;;;;;;;8.97;6.60;;;;;;;8.37;64.70;97051.81;5078108;28;20771;-78
2023/04/10 02:36:42;;;;;;;10.53;6.67;;;;;;;8.23;64.82;97041.97;5061698;28;20276;-78
2023/04/10 02:39:11;;;;;;;9.93;7.03;;;;;;;8.24;65.21;97035.06;5075528;28;20259;-78
2023/04/10 02:41:46;;;;;;;8.83;6.83;;;;;;;8.40;65.03;97045.69;5080010;28;20193;-74
2023/04/10 02:44:13;;;;;;;8.57;6.27;;;;;;;8.44;64.75;97047.25;5062259;28;20197;-76
2023/04/10 02:46:41;;;;;;;9.00;6.27;;;;;;;8.27;65.57;97041.88;5061172;28;20201;-77
2023/04/10 02:49:10;;;;;;;8.10;6.33;;;;;;;8.29;64.86;97040.94;5076455;28;20205;-85
2023/04/10 02:51:37;;;;;;;10.07;6.97;;;;;;;8.29;66.04;97040.06;5070410;28;20192;-79
2023/04/10 02:54:04;;;;;;;11.93;8.60;;;;;;;8.33;65.13;97042.50;5066025;28;20307;-81
2023/04/10 02:56:33;;;;;;;12.10;8.40;;;;;;;8.37;65.28;97044.06;5050135;28;20268;-85
2023/04/10 02:59:01;;;;;;;11.70;8.30;;;;;;;8.35;65.90;97043.28;5067016;28;20190;-84
2023/04/10 03:01:29;;;;;;;11.83;7.90;;;;;;;8.26;65.27;97035.03;5032200;28;20592;-82
2023/04/10 03:03:57;;;;;;;13.40;7.77;;;;;;;8.10;65.92;97011.50;5031112;28;20593;-83
2023/04/10 03:06:30;;;;;;;14.70;8.90;;;;;;;8.30;65.81;97031.47;5085167;28;20197;-80
2023/04/10 03:08:57;;;;;;;11.33;7.30;;;;;;;8.31;65.99;97030.53;5055120;28;20665;-85
2023/04/10 03:11:26;;;;;;;12.47;8.57;;;;;;;8.34;66.53;97033.03;5070708;28;20196;-85
2023/04/10 03:13:53;;;;;;;12.80;7.80;;;;;;;8.26;66.03;97023.00;5086370;28;20776;-88
2023/04/10 03:16:21;;;;;;;11.50;7.30;;;;;;;8.23;65.92;97025.63;5088567;28;20201;-79
2023/04/10 03:18:48;;;;;;;11.00;7.67;;;;;;;8.05;65.69;97001.38;5052573;28;20216;-84
2023/04/10 03:21:15;;;;;;;10.33;7.60;;;;;;;8.09;66.44;97021.00;5070440;28;20225;-87
2023/04/10 03:23:42;;;;;;;17.60;9.47;;;;;;;8.22;66.14;97029.94;5053009;28;20192;-85
2023/04/10 03:26:10;;;;;;;13.67;8.53;;;;;;;8.25;65.42;97023.88;5056086;28;20271;-84
2023/04/10 03:28:38;;;;;;;12.87;8.57;;;;;;;8.32;66.16;97029.66;5088906;28;20223;-87
2023/04/10 03:31:08;;;;;;;13.67;8.07;;;;;;;8.20;66.67;97005.94;5071739;28;20690;-79
2023/04/10 03:33:35;;;;;;;11.80;7.50;;;;;;;8.24;66.49;97023.00;5072240;28;21036;-83
2023/04/10 03:36:03;;;;;;;11.10;8.03;;;;;;;8.19;66.98;97024.91;5071921;28;20241;-84
2023/04/10 03:38:32;;;;;;;14.80;9.07;;;;;;;8.10;66.08;96988.28;5071757;28;20177;-84
2023/04/10 03:40:59;;;;;;;19.73;10.87;;;;;;;8.25;66.36;97029.03;5071989;28;20211;-84
2023/04/10 03:43:30;;;;;;;20.97;11.63;;;;;;;8.38;66.45;97029.44;5075119;28;20193;-86
2023/04/10 03:45:58;;;;;;;13.80;9.03;;;;;;;8.24;66.05;97022.19;5072044;28;20268;-83
2023/04/10 03:48:27;;;;;;;11.33;8.03;;;;;;;8.10;66.50;97024.41;5089759;28;20189;-84
2023/04/10 03:50:55;;;;;;;11.73;7.23;;;;;;;8.06;66.06;97033.13;5072129;28;20268;-86
2023/04/10 03:53:23;;;;;;;11.50;7.00;;;;;;;7.94;66.05;97038.75;5089805;28;20200;-78
2023/04/10 03:55:52;;;;;;;12.30;6.90;;;;;;;7.79;66.13;97029.00;5071283;28;20199;-83
2023/04/10 03:58:21;;;;;;;14.53;7.93;;;;;;;7.71;66.31;97034.38;5073688;28;20218;-80
2023/04/10 04:00:50;;;;;;;12.37;6.80;;;;;;;7.48;67.07;97008.56;5071783;28;20538;-81
2023/04/10 04:03:42;;;;;;;9.70;6.47;;;;;;;7.70;65.89;97029.28;5074287;28;20655;-85
2023/04/10 04:06:44;;;;;;;16.20;7.60;;;;;;;7.64;65.76;97035.50;5035955;28;20195;-75
2023/04/10 04:09:14;;;;;;;12.67;7.23;;;;;;;7.57;65.83;97038.31;5069572;28;20742;-75
2023/04/10 04:11:50;;;;;;;13.87;8.30;;;;;;;7.58;66.51;97038.31;5067934;28;20220;-81
2023/04/10 04:15:15;;;;;;;12.23;7.00;;;;;;;7.67;65.36;97035.38;5075225;28;21036;-73
2023/04/10 04:19:02;;;;;;;14.93;7.30;;;;;;;7.86;65.46;97038.16;5057185;28;20295;-80
2023/04/10 04:22:41;;;;;;;12.47;7.77;;;;;;;7.93;65.88;97034.50;5055342;28;20697;-75
2023/04/10 04:25:40;;;;;;;14.37;8.83;;;;;;;8.03;64.51;97034.13;5048978;28;20277;-72
2023/04/10 04:28:23;;;;;;;20.77;8.90;;;;;;;8.19;64.90;97029.22;5049315;28;20274;-81
2023/04/10 04:31:10;;;;;;;19.40;9.43;;;;;;;8.28;64.82;97013.47;5048812;28;20190;-80
2023/04/10 04:33:55;;;;;;;16.80;8.83;;;;;;;8.68;63.97;97041.16;5048670;28;20296;-79
2023/04/10 04:36:41;;;;;;;15.73;8.17;;;;;;;8.97;62.58;97044.31;5048695;28;20188;-79
2023/04/10 04:39:28;;;;;;;13.57;7.40;;;;;;;9.44;61.65;97044.13;5047202;28;20178;-80
2023/04/10 04:42:13;;;;;;;18.10;8.27;;;;;;;9.67;60.96;97052.63;5052711;28;20193;-78
2023/04/10 04:45:04;;;;;;;14.47;7.13;;;;;;;9.63;60.39;97042.47;5053519;28;20284;-76
2023/04/10 04:47:33;;;;;;;19.43;10.33;;;;;;;9.92;59.67;97044.66;5059473;28;20269;-82
2023/04/10 04:50:14;;;;;;;18.80;9.23;;;;;;;10.13;59.17;97042.91;5047652;28;20208;-82
2023/04/10 04:53:16;;;;;;;15.00;8.87;;;;;;;10.52;58.07;97044.56;5006370;28;20226;-84
2023/04/10 04:56:02;;;;;;;11.40;7.37;;;;;;;10.56;57.06;97042.69;5044970;28;20206;-77
2023/04/10 04:59:07;;;;;;;17.10;9.33;;;;;;;10.87;56.70;97047.28;5006657;28;20202;-75
2023/04/10 05:01:54;;;;;;;14.77;8.27;;;;;;;10.83;56.21;97046.59;5021773;28;20592;-80
2023/04/10 05:04:40;;;;;;;13.03;8.73;;;;;;;10.94;55.83;97049.50;5036669;28;20285;-78
2023/04/10 05:07:24;;;;;;;15.63;8.27;;;;;;;10.85;56.30;97049.94;5048538;28;20856;-79
2023/04/10 05:10:03;;;;;;;10.17;6.93;;;;;;;10.99;55.28;97050.13;5046505;28;20188;-76
2023/04/10 05:12:48;;;;;;;14.20;7.23;;;;;;;11.42;54.96;97054.94;5047658;28;20792;-78
2023/04/10 05:15:32;;;;;;;15.67;8.07;;;;;;;11.52;53.73;97052.72;5047876;28;20259;-85
2023/04/10 05:18:27;;;;;;;10.43;7.47;;;;;;;11.61;54.05;97021.16;5029434;28;20209;-83
2023/04/10 05:21:14;;;;;;;16.43;8.00;;;;;;;12.01;53.39;97025.22;5046341;28;20285;-80
2023/04/10 05:24:01;;;;;;;9.63;6.37;;;;;;;12.55;51.35;97058.66;5047258;28;20288;-83
2023/04/10 05:26:44;;;;;;;11.00;6.40;;;;;;;12.67;50.96;97058.03;5048104;28;20676;-80
2023/04/10 05:29:39;;;;;;;6.60;5.13;;;;;;;12.64;49.94;97063.38;5009877;28;20688;-85
2023/04/10 05:32:38;;;;;;;6.23;4.90;;;;;;;12.61;50.81;97065.31;5013995;28;20200;-83
2023/04/10 05:35:26;;;;;;;7.13;4.70;;;;;;;12.08;51.34;97048.16;5047506;28;20649;-80
2023/04/10 05:38:00;;;;;;;5.37;4.57;;;;;;;12.06;52.22;97062.13;5048308;28;20291;-83
2023/04/10 05:40:46;;;;;;;6.10;4.90;;;;;;;11.99;51.98;97034.81;5046725;28;20200;-79
2023/04/10 05:43:31;;;;;;;5.03;4.30;;;;;;;12.28;51.81;97073.94;5048220;28;20186;-82
2023/04/10 05:46:11;;;;;;;7.57;5.07;;;;;;;12.00;51.36;97072.81;5046821;28;20211;-76
2023/04/10 05:48:57;;;;;;;5.83;4.67;;;;;;;12.03;51.37;97063.16;5045961;28;20211;-83
2023/04/10 05:51:42;;;;;;;7.63;5.60;;;;;;;12.15;51.29;97069.47;5047199;28;20191;-83
2023/04/10 05:54:38;;;;;;;8.83;6.50;;;;;;;12.62;50.80;97067.81;5041895;28;20736;-81
2023/04/10 05:57:30;;;;;;;8.50;7.03;;;;;;;12.60;50.65;97077.44;5045385;28;20208;-84
2023/04/10 06:00:16;;;;;;;7.60;5.70;;;;;;;12.87;50.30;97067.31;5045994;28;20220;-79
2023/04/10 06:03:03;;;;;;;5.57;4.30;;;;;;;12.93;49.39;97069.59;5046601;28;20183;-79
2023/04/10 06:05:31;;;;;;;5.13;4.30;;;;;;;12.80;49.65;97050.38;5045393;28;20201;-78
2023/04/10 06:08:03;;;;;;;8.37;5.63;;;;;;;12.89;49.75;97063.72;5045488;28;20189;-83
2023/04/10 06:10:31;;;;;;;6.20;4.13;;;;;;;12.70;50.40;97068.22;5046336;28;20191;-83
2023/04/10 06:12:58;;;;;;;6.53;4.80;;;;;;;12.47;48.86;97068.59;5045722;28;20269;-84
2023/04/10 06:15:25;;;;;;;4.77;4.27;;;;;;;12.25;49.59;97063.72;5045199;28;20616;-85
2023/04/10 06:17:53;;;;;;;7.57;4.60;;;;;;;12.59;50.30;97057.56;5045162;28;20228;-84
2023/04/10 06:20:20;;;;;;;4.67;4.00;;;;;;;12.48;50.67;97061.66;5046610;28;20201;-81
2023/04/10 06:22:49;;;;;;;7.70;4.57;;;;;;;12.80;49.95;97047.78;5044789;28;20222;-84
2023/04/10 06:25:16;;;;;;;7.17;5.37;;;;;;;12.85;48.97;97051.81;5046887;28;20184;-83
2023/04/10 06:27:44;;;;;;;7.80;5.57;;;;;;;12.76;49.71;97052.31;5046067;28;21150;-83
2023/04/10 06:30:12;;;;;;;6.63;5.13;;;;;;;12.77;49.17;97067.00;5045371;28;20213;-82
2023/04/10 06:32:40;;;;;;;7.97;5.70;;;;;;;12.80;49.40;97064.22;5047147;28;20647;-82
2023/04/10 06:35:07;;;;;;;5.97;4.60;;;;;;;12.68;49.22;97070.06;5050363;28;20710;-79
2023/04/10 06:37:34;;;;;;;6.83;5.13;;;;;;;12.64;49.99;97068.56;5051184;28;20196;-81
2023/04/10 06:40:08;;;;;;;8.43;6.40;;;;;;;12.79;50.01;97061.72;5032219;28;20231;-83
2023/04/10 06:42:37;;;;;;;4.13;3.60;;;;;;;12.50;51.77;97059.81;5037605;28;20229;-79
2023/04/10 06:45:26;;;;;;;5.60;4.90;;;;;;;12.83;50.93;97053.66;5058560;28;20201;-78
2023/04/10 06:47:53;;;;;;;7.63;5.67;;;;;;;12.72;50.33;97061.19;5050075;28;20606;-81
2023/04/10 06:50:20;;;;;;;7.20;5.13;;;;;;;12.82;51.00;97070.16;5050972;28;20236;-81
2023/04/10 06:52:47;;;;;;;6.97;5.30;;;;;;;13.06;50.04;97076.66;5050601;28;20198;-84
2023/04/10 06:55:14;;;;;;;5.13;4.20;;;;;;;12.15;49.49;97008.00;5050275;28;20267;-83
2023/04/10 06:57:42;;;;;;;8.83;6.27;;;;;;;12.57;50.52;97067.19;5050019;28;20267;-82
2023/04/10 07:00:09;;;;;;;7.03;5.67;;;;;;;12.69;50.60;97074.38;5055491;28;20226;-81
2023/04/10 07:02:36;;;;;;;5.37;4.27;;;;;;;12.61;50.00;97099.88;5053609;28;20198;-83
2023/04/10 07:05:04;;;;;;;7.43;5.57;;;;;;;12.13;51.07;97103.28;5050292;28;20683;-84
2023/04/10 07:07:31;;;;;;;12.63;5.27;;;;;;;12.02;52.01;97107.34;5049939;28;20240;-82
2023/04/10 07:09:58;;;;;;;8.00;6.27;;;;;;;12.11;51.66;97078.31;5049984;28;20576;-82
2023/04/10 07:12:25;;;;;;;6.47;5.63;;;;;;;12.36;51.08;97094.31;5048649;28;20338;-75
2023/04/10 07:14:52;;;;;;;6.80;5.30;;;;;;;12.52;50.90;97087.41;5051173;28;20254;-81
2023/04/10 07:17:20;;;;;;;7.97;5.43;;;;;;;12.58;51.03;97078.44;5052468;28;20226;-82
2023/04/10 07:19:47;;;;;;;6.77;5.53;;;;;;;12.85;50.54;97088.22;5050103;28;20339;-82
2023/04/10 07:22:14;;;;;;;6.77;4.60;;;;;;;12.28;51.16;97084.31;5079796;28;20221;-84
2023/04/10 07:24:41;;;;;;;7.47;5.00;;;;;;;12.45;51.57;97086.03;5090588;28;20190;-81
2023/04/10 07:27:08;;;;;;;6.57;5.30;;;;;;;12.35;52.28;97068.41;5090142;28;20254;-82
2023/04/10 07:29:35;;;;;;;5.43;4.80;;;;;;;12.46;52.58;97081.69;5090615;28;20211;-82
2023/04/10 07:32:03;;;;;;;8.73;6.03;;;;;;;12.29;52.16;97077.38;5071724;28;20605;-81
2023/04/10 07:34:31;;;;;;;8.10;5.73;;;;;;;12.40;51.22;97072.47;5071644;28;20622;-79
2023/04/10 07:36:58;;;;;;;6.33;4.90;;;;;;;12.63;50.10;97076.44;5090358;28;20601;-79
2023/04/10 07:39:26;;;;;;;7.60;5.80;;;;;;;12.49;51.79;97079.75;5090255;28;20257;-79
2023/04/10 07:41:54;;;;;;;6.97;5.77;;;;;;;12.48;51.80;97061.66;5088930;28;20225;-79
2023/04/10 07:44:21;;;;;;;7.73;5.73;;;;;;;12.81;51.41;97078.06;5054644;28;20646;-81
2023/04/10 07:46:48;;;;;;;8.60;6.37;;;;;;;12.98;50.58;97078.81;5089278;28;20247;-83
2023/04/10 07:49:15;;;;;;;6.47;5.43;;;;;;;13.11;50.34;97078.19;5071155;28;20900;-83
2023/04/10 07:51:42;;;;;;;7.33;5.27;;;;;;;12.73;50.73;97082.81;5088958;28;20215;-87
2023/04/10 07:54:09;;;;;;;6.27;5.07;;;;;;;12.89;49.99;97074.13;5089065;28;20315;-81
2023/04/10 07:56:36;;;;;;;7.17;5.47;;;;;;;12.98;51.26;97098.78;5089743;28;20674;-78
2023/04/10 07:59:06;;;;;;;5.80;4.50;;;;;;;12.51;50.38;97088.31;5088475;28;20837;-80
2023/04/10 08:01:32;;;;;;;8.53;5.37;;;;;;;12.55;51.10;97095.03;5089311;28;20243;-77
2023/04/10 08:04:00;;;;;;;8.50;5.83;;;;;;;12.58;51.62;97087.06;5071360;28;20203;-84
2023/04/10 08:06:31;;;;;;;8.23;6.27;;;;;;;12.58;51.13;97084.47;5071069;28;20207;-82
2023/04/10 08:09:00;;;;;;;6.40;5.13;;;;;;;12.80;50.62;97087.59;5089341;28;20264;-83
2023/04/10 08:11:30;;;;;;;7.10;5.03;;;;;;;12.84;50.71;97091.72;5088928;28;20726;-83
2023/04/10 08:14:02;;;;;;;8.13;6.20;;;;;;;12.90;51.02;97077.56;5088893;28;20186;-75
2023/04/10 08:16:31;;;;;;;8.57;5.97;;;;;;;12.94;51.08;97092.06;5088918;28;20230;-84
2023/04/10 08:18:59;;;;;;;15.23;9.33;;;;;;;12.69;50.40;97096.91;5054235;28;20203;-84
2023/04/10 08:21:28;;;;;;;10.00;5.60;;;;;;;12.66;49.99;97092.69;5059519;28;20239;-85
2023/04/10 08:24:01;;;;;;;12.77;6.93;;;;;;;12.36;50.18;97072.69;5052674;28;20185;-80
2023/04/10 08:26:29;;;;;;;11.43;6.80;;;;;;;12.35;50.67;97058.88;5048410;28;20277;-86
2023/04/10 08:28:58;;;;;;;8.90;5.40;;;;;;;12.79;49.21;97078.16;5029529;28;20616;-85
2023/04/10 08:31:27;;;;;;;9.93;6.37;;;;;;;12.93;49.10;97091.22;5047449;28;20686;-87
2023/04/10 08:33:55;;;;;;;6.20;4.73;;;;;;;12.49;49.40;97063.34;5029518;28;20204;-83
2023/04/10 08:36:23;;;;;;;5.33;4.33;;;;;;;11.81;49.27;96960.53;5046762;28;20700;-81
2023/04/10 08:38:50;;;;;;;9.43;6.10;;;;;;;12.85;49.71;97093.41;5047943;28;20187;-82
2023/04/10 08:41:18;;;;;;;7.47;5.97;;;;;;;12.75;48.91;97080.97;5050597;28;20268;-82
2023/04/10 08:43:46;;;;;;;8.77;5.20;;;;;;;12.93;48.88;97074.78;5049007;28;20592;-82
2023/04/10 08:46:13;;;;;;;8.87;5.77;;;;;;;12.81;48.48;97076.31;5059233;28;20190;-82
2023/04/10 08:48:54;;;;;;;6.90;5.67;;;;;;;13.05;47.64;97059.41;5051621;28;20232;-85
2023/04/10 08:51:25;;;;;;;5.57;4.80;;;;;;;12.99;48.74;97059.69;5047839;28;20194;-86
2023/04/10 08:53:57;;;;;;;7.57;4.90;;;;;;;12.78;48.53;97060.88;5052876;28;20633;-85
2023/04/10 08:56:25;;;;;;;5.33;4.40;;;;;;;12.97;48.58;97055.50;5048816;28;20215;-84
2023/04/10 08:58:53;;;;;;;10.40;6.93;;;;;;;13.22;47.18;97048.06;5048686;28;20575;-84
2023/04/10 09:01:20;;;;;;;6.40;5.17;;;;;;;13.17;48.01;97031.03;5048975;28;20189;-86
2023/04/10 09:03:47;;;;;;;6.70;4.57;;;;;;;13.14;47.65;97036.41;5047252;28;20621;-78
2023/04/10 09:06:15;;;;;;;6.40;4.70;;;;;;;13.45;46.57;97058.00;5047774;28;20195;-79
2023/04/10 09:08:42;;;;;;;6.93;5.03;;;;;;;13.58;46.59;97032.13;5047691;28;20216;-81
2023/04/10 09:11:09;;;;;;;7.57;4.80;;;;;;;13.59;46.62;97047.66;5047795;28;20202;-82
2023/04/10 09:13:36;;;;;;;5.87;4.80;;;;;;;13.82;46.73;97039.34;5048424;28;20216;-82
2023/04/10 09:16:04;;;;;;;5.77;4.57;;;;;;;13.70;47.01;97029.63;5047122;28;20228;-81
2023/04/10 09:18:50;;;;;;;9.90;5.27;;;;;;;14.11;46.18;97037.63;5047662;28;20230;-79
2023/04/10 09:21:19;;;;;;;5.60;4.73;;;;;;;14.03;46.11;97034.66;5059578;28;20970;-78
2023/04/10 09:23:47;;;;;;;5.37;4.13;;;;;;;13.54;46.34;97057.47;5069685;28;20598;-82
2023/04/10 09:26:23;;;;;;;4.67;4.00;;;;;;;12.74;48.89;96997.00;5069198;28;20183;-82
2023/04/10 09:28:57;;;;;;;7.50;4.30;;;;;;;12.91;47.78;97041.09;5087692;28;20191;-81
2023/04/10 09:31:29;;;;;;;6.63;4.43;;;;;;;12.81;48.58;97044.28;5088216;28;20182;-83
2023/04/10 09:34:18;;;;;;;7.87;5.30;;;;;;;12.81;48.91;97034.72;5087119;28;20317;-81
2023/04/10 09:36:57;;;;;;;5.17;4.10;;;;;;;12.83;49.25;97053.66;5071953;28;20692;-77
2023/04/10 09:39:42;;;;;;;13.63;7.97;;;;;;;12.88;48.70;97038.66;5090228;28;20190;-82
2023/04/10 09:42:10;;;;;;;7.90;5.60;;;;;;;12.79;48.92;96995.00;5087417;28;20199;-83
2023/04/10 09:44:38;;;;;;;12.87;7.10;;;;;;;13.22;48.73;97018.59;5068916;28;20233;-87
2023/04/10 09:47:15;;;;;;;6.30;4.87;;;;;;;13.25;48.70;97028.84;5087198;28;20683;-81
2023/04/10 09:49:47;;;;;;;6.43;4.40;;;;;;;13.06;48.83;97014.25;5067005;28;20677;-82
2023/04/10 09:52:17;;;;;;;4.23;3.63;;;;;;;13.00;47.54;97014.56;5067171;28;20187;-84
2023/04/10 09:54:44;;;;;;;5.57;4.37;;;;;;;12.90;48.96;96997.81;5066949;28;20274;-82
2023/04/10 09:57:19;;;;;;;6.10;4.70;;;;;;;13.18;49.28;97028.34;5066845;28;20728;-85
2023/04/10 09:59:51;;;;;;;4.93;4.00;;;;;;;12.91;48.52;97009.91;5066898;28;20193;-81
2023/04/10 10:02:20;;;;;;;4.83;4.30;;;;;;;12.83;47.89;97011.25;5066440;28;20636;-80
2023/04/10 10:04:49;;;;;;;6.03;4.07;;;;;;;13.00;48.72;97013.75;5066259;28;20681;-86
2023/04/10 10:07:19;;;;;;;5.70;4.70;;;;;;;12.94;49.92;97014.91;5048850;28;20211;-75
2023/04/10 10:09:49;;;;;;;6.30;5.10;;;;;;;13.07;50.24;97007.31;5066407;28;20584;-74
2023/04/10 10:12:28;;;;;;;5.80;5.10;;;;;;;12.97;49.49;96980.13;5066848;28;20180;-82
2023/04/10 10:15:09;;;;;;;5.57;4.77;;;;;;;13.03;49.24;96993.63;5066221;28;20264;-83
2023/04/10 10:17:56;;;;;;;6.23;4.70;;;;;;;13.05;49.94;97002.19;5048701;28;20655;-83
2023/04/10 10:20:25;;;;;;;6.40;5.20;;;;;;;13.10;48.97;96985.50;5049243;28;20556;-82
2023/04/10 10:22:53;;;;;;;6.87;5.03;;;;;;;13.26;48.92;96986.28;5066263;28;20215;-84
2023/04/10 10:25:20;;;;;;;9.03;5.73;;;;;;;13.37;48.29;96986.53;5066386;28;20701;-76
2023/04/10 10:27:51;;;;;;;8.83;5.97;;;;;;;13.14;48.41;96989.59;5066209;28;20239;-76
2023/04/10 10:30:19;;;;;;;6.60;5.23;;;;;;;13.03;47.90;96971.97;5066377;28;20227;-82
2023/04/10 10:32:57;;;;;;;4.90;4.40;;;;;;;13.26;47.40;96981.94;5066480;28;20666;-83
2023/04/10 10:35:25;;;;;;;13.47;10.30;;;;;;;13.23;47.63;96970.88;5065920;28;20273;-82
2023/04/10 10:37:58;;;;;;;7.70;4.93;;;;;;;13.17;47.73;96984.25;5065949;28;20215;-84
2023/04/10 10:40:37;;;;;;;6.30;5.43;;;;;;;13.14;48.49;96971.41;5048266;28;20191;-83
2023/04/10 10:43:34;;;;;;;6.80;5.40;;;;;;;13.01;47.67;96924.44;5066817;28;20183;-77
2023/04/10 10:46:06;;;;;;;7.53;5.40;;;;;;;13.17;48.25;96968.63;5073319;28;20196;-76
2023/04/10 10:48:33;;;;;;;7.00;5.67;;;;;;;13.21;47.62;96972.75;5085238;28;20247;-82
2023/04/10 10:51:02;;;;;;;6.27;5.03;;;;;;;13.14;48.32;96968.81;5086357;28;20288;-80
2023/04/10 10:53:39;;;;;;;5.93;5.00;;;;;;;13.17;47.69;96963.44;5086236;28;20196;-81
2023/04/10 10:56:18;;;;;;;5.33;4.67;;;;;;;13.04;47.69;96963.28;5085815;28;20215;-83
2023/04/10 10:58:49;;;;;;;5.87;4.67;;;;;;;13.20;47.57;96953.69;5086704;28;20184;-82
2023/04/10 11:01:17;;;;;;;6.97;4.90;;;;;;;13.61;46.38;96939.09;5079545;28;20286;-83
2023/04/10 11:03:45;;;;;;;6.13;4.67;;;;;;;13.64;45.08;96941.50;5066127;28;20185;-83
2023/04/10 11:06:15;;;;;;;7.30;4.50;;;;;;;13.41;46.11;96931.66;5066254;28;20201;-78
2023/04/10 11:08:51;;;;;;;6.90;4.70;;;;;;;13.32;45.58;96910.53;5065859;28;20192;-84
2023/04/10 11:11:24;;;;;;;6.70;5.00;;;;;;;13.45;45.43;96919.28;5066635;28;20676;-79
2023/04/10 11:13:56;;;;;;;6.73;5.50;;;;;;;13.82;45.27;96922.22;5065870;28;20199;-81
2023/04/10 11:16:42;;;;;;;9.20;6.10;;;;;;;14.02;45.02;96918.38;5066462;28;20687;-81
2023/04/10 11:19:14;;;;;;;6.17;4.83;;;;;;;13.83;44.91;96923.03;5047919;28;20604;-79
2023/04/10 11:21:58;;;;;;;4.60;4.17;;;;;;;13.93;44.86;96921.53;5047995;28;20308;-84
2023/04/10 11:24:27;;;;;;;7.57;6.00;;;;;;;13.97;45.39;96915.25;5066116;28;20215;-84
2023/04/10 11:26:55;;;;;;;8.27;6.37;;;;;;;14.06;45.20;96909.44;5048300;28;20186;-83
2023/04/10 11:29:28;;;;;;;6.33;5.47;;;;;;;14.05;45.54;96918.22;5071530;28;20562;-78
2023/04/10 11:32:00;;;;;;;6.13;4.77;;;;;;;13.83;46.46;96907.41;5073161;28;20296;-83
2023/04/10 11:34:29;;;;;;;6.27;5.20;;;;;;;13.65;45.69;96874.69;5069379;28;20185;-84
2023/04/10 11:36:56;;;;;;;7.53;5.23;;;;;;;13.97;46.05;96924.81;5069590;28;20247;-75
2023/04/10 11:39:25;;;;;;;6.67;5.33;;;;;;;13.74;46.65;96900.19;5069454;28;20275;-81
2023/04/10 11:41:55;;;;;;;6.23;4.97;;;;;;;13.43;47.70;96913.34;5069549;28;20241;-82
2023/04/10 11:44:25;;;;;;;8.80;6.70;;;;;;;13.64;49.20;96920.69;5069449;28;20190;-85
2023/04/10 11:46:52;;;;;;;7.03;5.40;;;;;;;13.60;48.84;96914.00;5054261;28;20193;-82
2023/04/10 11:49:22;;;;;;;5.90;5.17;;;;;;;13.83;49.04;96920.44;5075896;28;20197;-84
2023/04/10 11:51:50;;;;;;;8.20;5.90;;;;;;;13.86;48.51;96907.25;5052880;28;20215;-80
2023/04/10 11:54:20;;;;;;;7.87;5.83;;;;;;;13.73;48.83;96904.53;5069896;28;20192;-84
2023/04/10 11:57:10;;;;;;;6.83;5.00;;;;;;;13.89;48.58;96905.28;5069313;28;20215;-79
2023/04/10 11:59:37;;;;;;;9.13;5.67;;;;;;;14.00;48.59;96896.81;5069741;28;20207;-80
2023/04/10 12:02:08;;;;;;;12.00;6.13;;;;;;;14.16;48.54;96896.69;5050811;28;20198;-82
2023/04/10 12:04:36;;;;;;;7.37;5.13;;;;;;;14.16;48.17;96887.13;5068278;28;20201;-81